FZAA/FIH METAR and TAF weather

Enter ICAO airport designator
Station Type Date Time Source
FZAA METAR 2021/03/03 19:00 UTC NOAA

FZAA 031900Z 15004KT 7000 SCT020 28/25 Q1008 NOSIG


Station Type Date Time Source
FZAA Decoded METAR 2021/03/03 19:00 UTC NOAA

Kinshasa / N'Djili, Congo, Democratic Republic of the (FZAA) 04-23S 015-26E 312M
Mar 03, 2021 - 02:00 PM EST / 2021.03.03 1900 UTC
Wind: from the SSE (150 degrees) at 5 MPH (4 KT):0
Visibility: 4 mile(s):0
Sky conditions: partly cloudy
Temperature: 82 F (28 C)
Dew Point: 77 F (25 C)
Relative Humidity: 83%
Pressure (altimeter): 29.77 in. Hg (1008 hPa)
ob: FZAA 031900Z 15004KT 7000 SCT020 28/25 Q1008 NOSIG
cycle: 19

Station Type Date Time Source
FZAA TAF 2021/03/03 18:59 UTC NOAA

TAF FZAA 031700Z 0318/0424 24006KT 6000 SCT018
BECMG 0410/0412 SCT020 FEW030CB PROB30 0413/0418 TS
BECMG 0420/0422 SCT016

Example: see airport list